sensor_id;sensor_type;location;lat;lon;timestamp;P1;durP1;ratioP1;P2;durP2;ratioP2
79664;SDS011;69132;44.014;20.918;2023-04-15T00:00:02;9.60;;;5.85;;
79664;SDS011;69132;44.014;20.918;2023-04-15T00:02:28;9.35;;;5.47;;
79664;SDS011;69132;44.014;20.918;2023-04-15T00:05:00;7.78;;;4.95;;
79664;SDS011;69132;44.014;20.918;2023-04-15T00:07:26;11.18;;;5.57;;
79664;SDS011;69132;44.014;20.918;2023-04-15T00:09:54;10.90;;;6.93;;
79664;SDS011;69132;44.014;20.918;2023-04-15T00:12:30;9.73;;;6.60;;
79664;SDS011;69132;44.014;20.918;2023-04-15T00:14:56;10.02;;;6.47;;
79664;SDS011;69132;44.014;20.918;2023-04-15T00:17:23;11.02;;;6.78;;
79664;SDS011;69132;44.014;20.918;2023-04-15T00:19:49;9.30;;;5.20;;
79664;SDS011;69132;44.014;20.918;2023-04-15T00:22:15;10.65;;;6.50;;
79664;SDS011;69132;44.014;20.918;2023-04-15T00:24:42;7.60;;;5.70;;
79664;SDS011;69132;44.014;20.918;2023-04-15T00:27:08;7.90;;;5.43;;
79664;SDS011;69132;44.014;20.918;2023-04-15T00:29:34;11.00;;;6.10;;
79664;SDS011;69132;44.014;20.918;2023-04-15T00:32:01;6.75;;;4.35;;
79664;SDS011;69132;44.014;20.918;2023-04-15T00:34:30;15.00;;;9.85;;
79664;SDS011;69132;44.014;20.918;2023-04-15T00:39:23;14.68;;;7.85;;
79664;SDS011;69132;44.014;20.918;2023-04-15T00:41:50;11.50;;;7.28;;
79664;SDS011;69132;44.014;20.918;2023-04-15T00:44:17;10.45;;;6.68;;
79664;SDS011;69132;44.014;20.918;2023-04-15T00:46:43;13.57;;;6.80;;
79664;SDS011;69132;44.014;20.918;2023-04-15T00:49:09;7.72;;;5.53;;
79664;SDS011;69132;44.014;20.918;2023-04-15T00:51:35;12.02;;;5.88;;
79664;SDS011;69132;44.014;20.918;2023-04-15T00:54:02;10.25;;;6.93;;
79664;SDS011;69132;44.014;20.918;2023-04-15T00:56:28;13.90;;;7.53;;
79664;SDS011;69132;44.014;20.918;2023-04-15T00:58:55;10.18;;;6.22;;
79664;SDS011;69132;44.014;20.918;2023-04-15T01:01:23;10.65;;;6.93;;
79664;SDS011;69132;44.014;20.918;2023-04-15T01:03:49;14.27;;;7.05;;
79664;SDS011;69132;44.014;20.918;2023-04-15T01:06:16;10.95;;;6.80;;
79664;SDS011;69132;44.014;20.918;2023-04-15T01:08:42;9.27;;;6.10;;
79664;SDS011;69132;44.014;20.918;2023-04-15T01:11:09;10.23;;;5.80;;
79664;SDS011;69132;44.014;20.918;2023-04-15T01:13:36;7.25;;;5.05;;
79664;SDS011;69132;44.014;20.918;2023-04-15T01:16:02;10.10;;;5.13;;
79664;SDS011;69132;44.014;20.918;2023-04-15T01:18:28;8.02;;;5.25;;
79664;SDS011;69132;44.014;20.918;2023-04-15T01:20:59;8.48;;;4.88;;
79664;SDS011;69132;44.014;20.918;2023-04-15T01:23:26;8.15;;;4.57;;
79664;SDS011;69132;44.014;20.918;2023-04-15T01:28:55;7.15;;;4.63;;
79664;SDS011;69132;44.014;20.918;2023-04-15T01:31:22;16.50;;;12.00;;
79664;SDS011;69132;44.014;20.918;2023-04-15T01:33:48;9.82;;;5.85;;
79664;SDS011;69132;44.014;20.918;2023-04-15T01:36:15;8.38;;;5.28;;
79664;SDS011;69132;44.014;20.918;2023-04-15T01:38:41;11.75;;;5.50;;
79664;SDS011;69132;44.014;20.918;2023-04-15T01:41:08;8.57;;;4.90;;
79664;SDS011;69132;44.014;20.918;2023-04-15T01:43:36;8.13;;;5.37;;
79664;SDS011;69132;44.014;20.918;2023-04-15T01:46:04;9.13;;;5.70;;
79664;SDS011;69132;44.014;20.918;2023-04-15T01:48:31;10.80;;;5.72;;
79664;SDS011;69132;44.014;20.918;2023-04-15T01:50:57;10.55;;;6.28;;
79664;SDS011;69132;44.014;20.918;2023-04-15T01:53:24;8.55;;;5.82;;
79664;SDS011;69132;44.014;20.918;2023-04-15T01:55:50;9.48;;;5.80;;
79664;SDS011;69132;44.014;20.918;2023-04-15T01:58:17;9.20;;;5.70;;
79664;SDS011;69132;44.014;20.918;2023-04-15T02:00:43;12.13;;;7.25;;
79664;SDS011;69132;44.014;20.918;2023-04-15T02:03:12;14.65;;;7.68;;
79664;SDS011;69132;44.014;20.918;2023-04-15T02:05:38;12.23;;;7.32;;
79664;SDS011;69132;44.014;20.918;2023-04-15T02:08:04;14.02;;;7.63;;
79664;SDS011;69132;44.014;20.918;2023-04-15T02:10:31;13.18;;;7.35;;
79664;SDS011;69132;44.014;20.918;2023-04-15T02:12:57;12.90;;;8.15;;
79664;SDS011;69132;44.014;20.918;2023-04-15T02:15:24;14.18;;;8.23;;
79664;SDS011;69132;44.014;20.918;2023-04-15T02:17:58;13.48;;;8.68;;
79664;SDS011;69132;44.014;20.918;2023-04-15T02:20:25;12.55;;;7.30;;
79664;SDS011;69132;44.014;20.918;2023-04-15T02:22:54;10.98;;;6.40;;
79664;SDS011;69132;44.014;20.918;2023-04-15T02:25:21;11.82;;;6.93;;
79664;SDS011;69132;44.014;20.918;2023-04-15T02:27:47;13.63;;;7.47;;
79664;SDS011;69132;44.014;20.918;2023-04-15T02:30:14;12.93;;;7.13;;
79664;SDS011;69132;44.014;20.918;2023-04-15T02:32:41;10.77;;;5.85;;
79664;SDS011;69132;44.014;20.918;2023-04-15T02:37:36;7.80;;;4.75;;
79664;SDS011;69132;44.014;20.918;2023-04-15T02:40:08;8.38;;;4.93;;
79664;SDS011;69132;44.014;20.918;2023-04-15T02:45:33;6.97;;;4.40;;
79664;SDS011;69132;44.014;20.918;2023-04-15T02:47:59;6.20;;;3.85;;
79664;SDS011;69132;44.014;20.918;2023-04-15T02:50:30;6.75;;;3.45;;
79664;SDS011;69132;44.014;20.918;2023-04-15T02:52:56;5.10;;;3.53;;
79664;SDS011;69132;44.014;20.918;2023-04-15T02:55:23;5.22;;;3.60;;
79664;SDS011;69132;44.014;20.918;2023-04-15T02:57:49;48.67;;;19.05;;
79664;SDS011;69132;44.014;20.918;2023-04-15T03:00:15;13.25;;;5.57;;
79664;SDS011;69132;44.014;20.918;2023-04-15T03:02:41;4.10;;;2.50;;
79664;SDS011;69132;44.014;20.918;2023-04-15T03:05:11;4.35;;;2.40;;
79664;SDS011;69132;44.014;20.918;2023-04-15T03:07:44;4.50;;;2.50;;
79664;SDS011;69132;44.014;20.918;2023-04-15T03:10:10;6.10;;;2.97;;
79664;SDS011;69132;44.014;20.918;2023-04-15T03:12:38;3.97;;;2.25;;
79664;SDS011;69132;44.014;20.918;2023-04-15T03:15:05;3.95;;;2.60;;
79664;SDS011;69132;44.014;20.918;2023-04-15T03:17:32;4.03;;;2.83;;
79664;SDS011;69132;44.014;20.918;2023-04-15T03:19:58;6.00;;;2.28;;
79664;SDS011;69132;44.014;20.918;2023-04-15T03:22:36;5.53;;;2.30;;
79664;SDS011;69132;44.014;20.918;2023-04-15T03:25:02;4.97;;;2.17;;
79664;SDS011;69132;44.014;20.918;2023-04-15T03:27:29;7.75;;;2.88;;
79664;SDS011;69132;44.014;20.918;2023-04-15T03:29:56;5.53;;;2.70;;
79664;SDS011;69132;44.014;20.918;2023-04-15T03:32:22;6.95;;;2.47;;
79664;SDS011;69132;44.014;20.918;2023-04-15T03:34:48;5.05;;;3.03;;
79664;SDS011;69132;44.014;20.918;2023-04-15T03:37:14;4.65;;;2.60;;
79664;SDS011;69132;44.014;20.918;2023-04-15T03:39:40;8.90;;;3.63;;
79664;SDS011;69132;44.014;20.918;2023-04-15T03:42:06;6.20;;;3.13;;
79664;SDS011;69132;44.014;20.918;2023-04-15T03:44:33;6.20;;;3.40;;
79664;SDS011;69132;44.014;20.918;2023-04-15T03:46:59;7.85;;;3.78;;
79664;SDS011;69132;44.014;20.918;2023-04-15T03:49:33;6.03;;;3.67;;
79664;SDS011;69132;44.014;20.918;2023-04-15T03:51:59;8.45;;;3.97;;
79664;SDS011;69132;44.014;20.918;2023-04-15T03:59:26;12.30;;;7.10;;
79664;SDS011;69132;44.014;20.918;2023-04-15T04:01:52;9.85;;;6.25;;
79664;SDS011;69132;44.014;20.918;2023-04-15T04:04:18;10.40;;;6.70;;
79664;SDS011;69132;44.014;20.918;2023-04-15T04:06:45;10.10;;;6.03;;
79664;SDS011;69132;44.014;20.918;2023-04-15T04:09:11;6.25;;;4.68;;
79664;SDS011;69132;44.014;20.918;2023-04-15T04:11:37;11.38;;;4.90;;
79664;SDS011;69132;44.014;20.918;2023-04-15T04:14:04;9.43;;;4.00;;
79664;SDS011;69132;44.014;20.918;2023-04-15T04:16:30;4.88;;;2.95;;
79664;SDS011;69132;44.014;20.918;2023-04-15T04:18:57;5.85;;;3.40;;
79664;SDS011;69132;44.014;20.918;2023-04-15T04:21:24;5.68;;;3.90;;
79664;SDS011;69132;44.014;20.918;2023-04-15T04:26:39;7.60;;;3.78;;
79664;SDS011;69132;44.014;20.918;2023-04-15T04:29:05;8.43;;;4.43;;
79664;SDS011;69132;44.014;20.918;2023-04-15T04:31:32;8.48;;;4.05;;
79664;SDS011;69132;44.014;20.918;2023-04-15T04:33:58;8.98;;;5.15;;
79664;SDS011;69132;44.014;20.918;2023-04-15T04:36:24;10.98;;;4.88;;
79664;SDS011;69132;44.014;20.918;2023-04-15T04:38:50;7.25;;;4.80;;
79664;SDS011;69132;44.014;20.918;2023-04-15T04:41:16;8.75;;;4.60;;
79664;SDS011;69132;44.014;20.918;2023-04-15T04:43:58;12.65;;;5.28;;
79664;SDS011;69132;44.014;20.918;2023-04-15T04:46:24;9.65;;;5.30;;
79664;SDS011;69132;44.014;20.918;2023-04-15T04:48:50;10.45;;;5.80;;
79664;SDS011;69132;44.014;20.918;2023-04-15T04:51:16;7.72;;;5.18;;
79664;SDS011;69132;44.014;20.918;2023-04-15T04:53:42;7.57;;;4.88;;
79664;SDS011;69132;44.014;20.918;2023-04-15T04:56:08;8.85;;;4.35;;
79664;SDS011;69132;44.014;20.918;2023-04-15T04:58:35;8.32;;;5.28;;
79664;SDS011;69132;44.014;20.918;2023-04-15T05:01:01;9.13;;;4.95;;
79664;SDS011;69132;44.014;20.918;2023-04-15T05:03:28;8.30;;;4.50;;
79664;SDS011;69132;44.014;20.918;2023-04-15T05:05:54;11.18;;;5.82;;
79664;SDS011;69132;44.014;20.918;2023-04-15T05:08:20;15.00;;;8.43;;
79664;SDS011;69132;44.014;20.918;2023-04-15T05:10:46;14.25;;;9.40;;
79664;SDS011;69132;44.014;20.918;2023-04-15T05:13:12;19.73;;;8.57;;
79664;SDS011;69132;44.014;20.918;2023-04-15T05:15:45;17.30;;;9.88;;
79664;SDS011;69132;44.014;20.918;2023-04-15T05:18:11;16.73;;;11.18;;
79664;SDS011;69132;44.014;20.918;2023-04-15T05:20:37;26.05;;;13.55;;
79664;SDS011;69132;44.014;20.918;2023-04-15T05:23:04;22.50;;;12.40;;
79664;SDS011;69132;44.014;20.918;2023-04-15T05:25:30;22.33;;;12.68;;
79664;SDS011;69132;44.014;20.918;2023-04-15T05:27:56;24.08;;;13.05;;
79664;SDS011;69132;44.014;20.918;2023-04-15T05:30:22;21.52;;;13.65;;
79664;SDS011;69132;44.014;20.918;2023-04-15T05:32:49;48.72;;;26.63;;
79664;SDS011;69132;44.014;20.918;2023-04-15T05:35:15;23.92;;;13.32;;
79664;SDS011;69132;44.014;20.918;2023-04-15T05:37:41;14.68;;;10.50;;
79664;SDS011;69132;44.014;20.918;2023-04-15T05:40:09;18.52;;;8.63;;
79664;SDS011;69132;44.014;20.918;2023-04-15T05:42:35;11.40;;;6.43;;
79664;SDS011;69132;44.014;20.918;2023-04-15T05:45:01;12.70;;;5.00;;
79664;SDS011;69132;44.014;20.918;2023-04-15T05:47:29;9.20;;;5.77;;
79664;SDS011;69132;44.014;20.918;2023-04-15T05:52:24;10.35;;;6.95;;
79664;SDS011;69132;44.014;20.918;2023-04-15T05:54:51;13.70;;;7.55;;
79664;SDS011;69132;44.014;20.918;2023-04-15T05:57:17;20.83;;;11.70;;
79664;SDS011;69132;44.014;20.918;2023-04-15T05:59:43;18.35;;;11.15;;
79664;SDS011;69132;44.014;20.918;2023-04-15T06:02:14;20.38;;;10.52;;
79664;SDS011;69132;44.014;20.918;2023-04-15T06:04:41;20.00;;;11.65;;
79664;SDS011;69132;44.014;20.918;2023-04-15T06:07:07;20.17;;;11.23;;
79664;SDS011;69132;44.014;20.918;2023-04-15T06:09:34;21.73;;;12.15;;
79664;SDS011;69132;44.014;20.918;2023-04-15T06:12:00;19.92;;;11.73;;
79664;SDS011;69132;44.014;20.918;2023-04-15T06:14:28;16.58;;;11.35;;
79664;SDS011;69132;44.014;20.918;2023-04-15T06:16:54;24.63;;;14.43;;
79664;SDS011;69132;44.014;20.918;2023-04-15T06:19:20;27.60;;;15.02;;
79664;SDS011;69132;44.014;20.918;2023-04-15T06:21:46;23.42;;;12.23;;
79664;SDS011;69132;44.014;20.918;2023-04-15T06:24:13;18.67;;;12.32;;
79664;SDS011;69132;44.014;20.918;2023-04-15T06:26:39;17.60;;;9.75;;
79664;SDS011;69132;44.014;20.918;2023-04-15T06:29:06;20.27;;;11.32;;
79664;SDS011;69132;44.014;20.918;2023-04-15T06:31:32;15.52;;;9.43;;
79664;SDS011;69132;44.014;20.918;2023-04-15T06:33:58;10.88;;;7.97;;
79664;SDS011;69132;44.014;20.918;2023-04-15T06:36:25;12.45;;;6.82;;
79664;SDS011;69132;44.014;20.918;2023-04-15T06:38:58;10.73;;;7.53;;
79664;SDS011;69132;44.014;20.918;2023-04-15T06:41:24;9.52;;;7.05;;
79664;SDS011;69132;44.014;20.918;2023-04-15T06:43:50;10.20;;;7.05;;
79664;SDS011;69132;44.014;20.918;2023-04-15T06:46:16;14.07;;;8.80;;
79664;SDS011;69132;44.014;20.918;2023-04-15T06:48:46;14.73;;;9.10;;
79664;SDS011;69132;44.014;20.918;2023-04-15T06:51:12;12.27;;;7.80;;
79664;SDS011;69132;44.014;20.918;2023-04-15T06:53:38;8.55;;;5.63;;
79664;SDS011;69132;44.014;20.918;2023-04-15T06:56:09;9.65;;;4.70;;
79664;SDS011;69132;44.014;20.918;2023-04-15T06:58:35;5.50;;;3.15;;
79664;SDS011;69132;44.014;20.918;2023-04-15T07:01:01;7.03;;;4.25;;
79664;SDS011;69132;44.014;20.918;2023-04-15T07:03:28;4.93;;;2.58;;
79664;SDS011;69132;44.014;20.918;2023-04-15T07:05:54;7.00;;;3.92;;
79664;SDS011;69132;44.014;20.918;2023-04-15T07:08:21;1.98;;;1.60;;
79664;SDS011;69132;44.014;20.918;2023-04-15T07:10:48;3.65;;;2.10;;
79664;SDS011;69132;44.014;20.918;2023-04-15T07:13:15;6.53;;;2.00;;
79664;SDS011;69132;44.014;20.918;2023-04-15T07:15:41;2.80;;;1.50;;
79664;SDS011;69132;44.014;20.918;2023-04-15T07:18:07;6.63;;;1.98;;
79664;SDS011;69132;44.014;20.918;2023-04-15T07:20:34;3.75;;;1.05;;
79664;SDS011;69132;44.014;20.918;2023-04-15T07:23:01;3.92;;;1.33;;
79664;SDS011;69132;44.014;20.918;2023-04-15T07:25:27;1.75;;;0.93;;
79664;SDS011;69132;44.014;20.918;2023-04-15T07:30:22;3.17;;;1.52;;
79664;SDS011;69132;44.014;20.918;2023-04-15T07:32:49;3.00;;;1.27;;
79664;SDS011;69132;44.014;20.918;2023-04-15T07:35:17;4.15;;;1.60;;
79664;SDS011;69132;44.014;20.918;2023-04-15T07:37:45;1.42;;;0.95;;
79664;SDS011;69132;44.014;20.918;2023-04-15T07:40:12;1.70;;;1.42;;
79664;SDS011;69132;44.014;20.918;2023-04-15T07:42:40;1.85;;;1.20;;
79664;SDS011;69132;44.014;20.918;2023-04-15T07:45:08;1.80;;;1.30;;
79664;SDS011;69132;44.014;20.918;2023-04-15T07:47:34;1.15;;;1.02;;
79664;SDS011;69132;44.014;20.918;2023-04-15T07:50:01;3.00;;;1.40;;
79664;SDS011;69132;44.014;20.918;2023-04-15T07:55:16;2.50;;;0.82;;
79664;SDS011;69132;44.014;20.918;2023-04-15T08:00:42;2.63;;;1.38;;
79664;SDS011;69132;44.014;20.918;2023-04-15T08:03:09;5.60;;;1.80;;
79664;SDS011;69132;44.014;20.918;2023-04-15T08:05:38;2.90;;;1.38;;
79664;SDS011;69132;44.014;20.918;2023-04-15T08:08:04;14.40;;;6.93;;
79664;SDS011;69132;44.014;20.918;2023-04-15T08:10:30;5.45;;;2.65;;
79664;SDS011;69132;44.014;20.918;2023-04-15T08:12:56;4.22;;;2.55;;
79664;SDS011;69132;44.014;20.918;2023-04-15T08:15:24;4.82;;;3.03;;
79664;SDS011;69132;44.014;20.918;2023-04-15T08:17:51;3.80;;;2.67;;
79664;SDS011;69132;44.014;20.918;2023-04-15T08:20:17;6.88;;;3.42;;
79664;SDS011;69132;44.014;20.918;2023-04-15T08:22:43;4.88;;;1.55;;
79664;SDS011;69132;44.014;20.918;2023-04-15T08:25:11;4.03;;;1.63;;
79664;SDS011;69132;44.014;20.918;2023-04-15T08:27:54;4.43;;;1.80;;
79664;SDS011;69132;44.014;20.918;2023-04-15T08:30:23;3.00;;;1.80;;
79664;SDS011;69132;44.014;20.918;2023-04-15T08:32:49;3.13;;;2.10;;
79664;SDS011;69132;44.014;20.918;2023-04-15T08:35:15;7.07;;;2.95;;
79664;SDS011;69132;44.014;20.918;2023-04-15T08:37:42;3.92;;;1.40;;
79664;SDS011;69132;44.014;20.918;2023-04-15T08:40:08;4.13;;;1.27;;
79664;SDS011;69132;44.014;20.918;2023-04-15T08:42:36;1.95;;;0.77;;
79664;SDS011;69132;44.014;20.918;2023-04-15T08:45:08;2.45;;;1.50;;
79664;SDS011;69132;44.014;20.918;2023-04-15T08:47:37;3.65;;;1.30;;
79664;SDS011;69132;44.014;20.918;2023-04-15T08:50:08;2.00;;;1.10;;
79664;SDS011;69132;44.014;20.918;2023-04-15T08:52:35;4.65;;;1.00;;
79664;SDS011;69132;44.014;20.918;2023-04-15T08:55:02;3.78;;;1.10;;
79664;SDS011;69132;44.014;20.918;2023-04-15T08:57:28;2.17;;;1.30;;
79664;SDS011;69132;44.014;20.918;2023-04-15T08:59:55;3.75;;;1.20;;
79664;SDS011;69132;44.014;20.918;2023-04-15T09:02:22;3.90;;;1.27;;
79664;SDS011;69132;44.014;20.918;2023-04-15T09:04:48;2.38;;;1.25;;
79664;SDS011;69132;44.014;20.918;2023-04-15T09:07:14;2.47;;;1.00;;
79664;SDS011;69132;44.014;20.918;2023-04-15T09:09:40;2.00;;;0.98;;
79664;SDS011;69132;44.014;20.918;2023-04-15T09:12:07;3.20;;;1.40;;
79664;SDS011;69132;44.014;20.918;2023-04-15T09:14:33;7.15;;;1.50;;
79664;SDS011;69132;44.014;20.918;2023-04-15T09:17:09;2.95;;;1.10;;
79664;SDS011;69132;44.014;20.918;2023-04-15T09:19:35;3.97;;;1.17;;
79664;SDS011;69132;44.014;20.918;2023-04-15T09:22:01;3.03;;;1.10;;
79664;SDS011;69132;44.014;20.918;2023-04-15T09:24:34;4.70;;;1.38;;
79664;SDS011;69132;44.014;20.918;2023-04-15T09:27:02;1.92;;;1.10;;
79664;SDS011;69132;44.014;20.918;2023-04-15T09:29:28;1.85;;;1.00;;
79664;SDS011;69132;44.014;20.918;2023-04-15T09:31:54;4.00;;;1.50;;
79664;SDS011;69132;44.014;20.918;2023-04-15T09:34:34;3.97;;;1.48;;
79664;SDS011;69132;44.014;20.918;2023-04-15T09:37:00;5.70;;;1.70;;
79664;SDS011;69132;44.014;20.918;2023-04-15T09:39:27;3.78;;;1.50;;
79664;SDS011;69132;44.014;20.918;2023-04-15T09:42:10;4.82;;;2.00;;
79664;SDS011;69132;44.014;20.918;2023-04-15T09:44:39;3.78;;;1.40;;
79664;SDS011;69132;44.014;20.918;2023-04-15T09:47:09;2.03;;;1.38;;
79664;SDS011;69132;44.014;20.918;2023-04-15T09:49:37;1.45;;;1.30;;
79664;SDS011;69132;44.014;20.918;2023-04-15T09:52:03;3.63;;;2.42;;
79664;SDS011;69132;44.014;20.918;2023-04-15T09:54:35;2.72;;;1.88;;
79664;SDS011;69132;44.014;20.918;2023-04-15T09:57:08;1.80;;;1.50;;
79664;SDS011;69132;44.014;20.918;2023-04-15T09:59:34;3.70;;;1.63;;
79664;SDS011;69132;44.014;20.918;2023-04-15T10:02:03;3.67;;;1.77;;
79664;SDS011;69132;44.014;20.918;2023-04-15T10:04:32;2.30;;;1.60;;
79664;SDS011;69132;44.014;20.918;2023-04-15T10:06:59;7.78;;;2.70;;
79664;SDS011;69132;44.014;20.918;2023-04-15T10:09:26;3.30;;;1.15;;
79664;SDS011;69132;44.014;20.918;2023-04-15T10:11:52;1.52;;;0.90;;
79664;SDS011;69132;44.014;20.918;2023-04-15T10:14:18;1.80;;;1.10;;
79664;SDS011;69132;44.014;20.918;2023-04-15T10:16:45;5.45;;;2.35;;
79664;SDS011;69132;44.014;20.918;2023-04-15T10:19:13;3.40;;;2.20;;
79664;SDS011;69132;44.014;20.918;2023-04-15T10:24:09;3.75;;;1.55;;
79664;SDS011;69132;44.014;20.918;2023-04-15T10:26:37;3.17;;;1.67;;
79664;SDS011;69132;44.014;20.918;2023-04-15T10:29:03;3.22;;;1.90;;
79664;SDS011;69132;44.014;20.918;2023-04-15T10:31:30;4.82;;;2.60;;
79664;SDS011;69132;44.014;20.918;2023-04-15T10:33:56;3.95;;;2.47;;
79664;SDS011;69132;44.014;20.918;2023-04-15T10:36:23;3.60;;;1.77;;
79664;SDS011;69132;44.014;20.918;2023-04-15T10:38:49;1.80;;;1.02;;
79664;SDS011;69132;44.014;20.918;2023-04-15T10:41:16;2.58;;;1.33;;
79664;SDS011;69132;44.014;20.918;2023-04-15T10:46:21;2.45;;;1.60;;
79664;SDS011;69132;44.014;20.918;2023-04-15T10:48:51;2.03;;;1.60;;
79664;SDS011;69132;44.014;20.918;2023-04-15T10:51:32;2.65;;;1.35;;
79664;SDS011;69132;44.014;20.918;2023-04-15T10:54:00;4.53;;;1.80;;
79664;SDS011;69132;44.014;20.918;2023-04-15T10:56:29;2.67;;;1.80;;
79664;SDS011;69132;44.014;20.918;2023-04-15T10:58:59;5.28;;;2.42;;
79664;SDS011;69132;44.014;20.918;2023-04-15T11:04:11;5.85;;;2.53;;
79664;SDS011;69132;44.014;20.918;2023-04-15T11:06:43;5.60;;;3.05;;
79664;SDS011;69132;44.014;20.918;2023-04-15T11:09:17;6.88;;;2.60;;
79664;SDS011;69132;44.014;20.918;2023-04-15T11:12:08;4.28;;;2.03;;
79664;SDS011;69132;44.014;20.918;2023-04-15T11:14:39;3.67;;;1.92;;
79664;SDS011;69132;44.014;20.918;2023-04-15T11:17:07;5.30;;;2.80;;
79664;SDS011;69132;44.014;20.918;2023-04-15T11:19:35;5.63;;;2.30;;
79664;SDS011;69132;44.014;20.918;2023-04-15T11:22:09;8.60;;;4.68;;
79664;SDS011;69132;44.014;20.918;2023-04-15T11:24:36;3.28;;;1.80;;
79664;SDS011;69132;44.014;20.918;2023-04-15T11:27:19;2.70;;;2.03;;
79664;SDS011;69132;44.014;20.918;2023-04-15T11:29:50;8.82;;;7.60;;
79664;SDS011;69132;44.014;20.918;2023-04-15T11:32:17;10.70;;;6.25;;
79664;SDS011;69132;44.014;20.918;2023-04-15T11:37:38;3.38;;;1.70;;
79664;SDS011;69132;44.014;20.918;2023-04-15T11:40:05;4.97;;;2.58;;
79664;SDS011;69132;44.014;20.918;2023-04-15T11:42:31;5.88;;;3.20;;
79664;SDS011;69132;44.014;20.918;2023-04-15T11:47:35;5.00;;;2.42;;
79664;SDS011;69132;44.014;20.918;2023-04-15T11:50:14;3.15;;;1.75;;
79664;SDS011;69132;44.014;20.918;2023-04-15T11:52:41;1.60;;;0.98;;
79664;SDS011;69132;44.014;20.918;2023-04-15T11:55:07;1.05;;;0.88;;
